Hampton, NH

5:12 AM EDT on September 17, 2014 (GMT -0400)
Beverly Municipal | Change Station
CLOSE
Current Station
Airport
Location: Beverly,
Elevation: 108 ft
Nearby Weather Stations

Elev 108 ft 42.58 °N, 70.92 °W | Updated 19 minutes ago

Fog
Fog
48 °F
Feels Like 48 °F
N
4
Wind Variable Wind from West

Today
High -- | Low -- °F
--% Chance of Precip.
Yesterday
High -- | Low -- °F
Precip. -- in
6:25 AM 6:49 PM
Last Quarter, 37% visible
Pressure 29.96 in
Visibility 5.0 miles
Clouds Clear
Dew Point 46 °F
Humidity 93%
Rainfall 0.00 in
Snow Depth Not available.
UV 0 out of 12
Pollen .80 out of 12
Ozone Good
PM2.5 Good
Flu Activity Not available.
METAR KBVY 170853Z AUTO 26003KT 5SM BR CLR 09/08 A2998 RMK AO2 SLP146 T00890078 55000

More Conditions Fewer Conditions

Pressure 29.96 in
Visibility 5.0 miles
Clouds Clear
Dew Point 46 °F
Humidity 93%
Rainfall 0.00 in
Snow Depth Not available.
UV 0 out of 12
Pollen .80 out of 12
Ozone Good
PM2.5 Good
Flu Activity Not available.
METAR KBVY 170853Z AUTO 26003KT 5SM BR CLR 09/08 A2998 RMK AO2 SLP146 T00890078 55000

More Conditions Fewer Conditions

10-Day Weather Forecast

Almanac

Astronomy

Sep. 17, 2014 Rise Set
Actual Time 6:25 AM EDT 6:49 PM EDT
Civil Twilight 5:56 AM EDT 7:18 PM EDT
Nautical Twilight 5:23 AM EDT 7:51 PM EDT
Astronomical Twilight 4:48 AM EDT 8:25 PM EDT
Moon 12:16 AM EDT 3:03 PM EDT
Length of Visible Light 13h 21m
Length of Day
12h 24m
Tomorrow will be 2m 53s shorter.
Last Quarter, 37% of the Moon is Illuminated
Today
Last Quarter
Sep 24
New
Oct 1
First Quarter
Oct 8
Full
Oct 15
Last Quarter

Today's Extremes

State Highs State Lows

Community

WunderPhotos

Upload Photos

1,753,991 photos uploaded!

Nearby

Air Quality

  Air Quality AQ Index Pollutant
Yesterday Good
OZONE
Yesterday Good
PM2.5
Current Good
PM2.5
Current Good
OZONE
Wednesday Good
PM2.5
Wednesday Good
OZONE

Snow Depth

Station Depth Elevation
No new snow has been reported.

Earthquake Activity

City Distance Mag. Time & Date
No recent earthquake activity has been reported nearby.
Minimum magnitude displayed is 2.5.

Coastal Water Temperatures

Place Temperature
Wells, ME 57.9 °F
Portland, ME 60.1 °F

Nearby Weather Stations